< < Back
Terminal Aerodrome Forecast


Current Version              Previous Versions:   1  2  3  4  5  6  7  8  9  

Terminal Aerodrome Forecast

463
FTUS44 KBMX 291658 AAB
TAFMGM
TAF AMD
KMGM 291658Z 2917/3012 32008KT 6SM SHRA VCTS BKN050CB
      TEMPO 2917/2920 3SM TSRA
     FM300100 32003KT P6SM SCT040 SCT100 SCT200
      TEMPO 3011/3012 4SM BR=

Latest METAR

685
SAUS80 KWBC 300400 RRA
MTRMGM
METAR KMGM 300353Z AUTO 31003KT 9SM CLR 26/24 A2998 RMK AO2 SLP147
T02610239


USA.gov is the U.S. government's official web portal to all federal, state and local government web resources and services.